Time;durP1;ratioP1;P1;durP2;ratioP2;P2;SDS_P1;SDS_P2;PMS_P1;PMS_P2;Temp;Humidity;BMP_temperature;BMP_pressure;BME280_temperature;BME280_humidity;BME280_pressure;Samples;Min_cycle;Max_cycle;Signal;HPM_P1;HPM_P2
2021/08/09 00:01:22;;;;;;;3.70;1.95;;;18.70;69.40;;;;;;5032104;28;20076;-83
2021/08/09 00:03:48;;;;;;;5.85;2.55;;;18.70;69.40;;;;;;5042760;28;20048;-84
2021/08/09 00:06:13;;;;;;;4.85;2.55;;;18.70;69.50;;;;;;5052373;28;20093;-86
2021/08/09 00:08:39;;;;;;;4.70;2.35;;;18.60;69.40;;;;;;5052112;28;20044;-84
2021/08/09 00:11:05;;;;;;;4.43;2.00;;;18.60;69.50;;;;;;5051301;28;20167;-84
2021/08/09 00:13:31;;;;;;;5.47;2.65;;;18.60;69.60;;;;;;5037305;28;20029;-84
2021/08/09 00:15:59;;;;;;;6.45;2.97;;;18.60;69.60;;;;;;5033707;28;20044;-83
2021/08/09 00:18:28;;;;;;;5.35;2.30;;;18.60;69.70;;;;;;5051695;28;20032;-84
2021/08/09 00:20:54;;;;;;;4.50;2.22;;;18.50;69.60;;;;;;5059670;28;20036;-81
2021/08/09 00:23:20;;;;;;;3.88;2.15;;;18.50;69.50;;;;;;5069941;28;20028;-84
2021/08/09 00:25:46;;;;;;;5.28;2.35;;;18.50;69.60;;;;;;5035668;28;20033;-84
2021/08/09 00:28:12;;;;;;;5.15;2.65;;;18.50;69.60;;;;;;5052552;28;20040;-85
2021/08/09 00:30:38;;;;;;;5.07;2.38;;;18.50;69.60;;;;;;5069533;28;20490;-84
2021/08/09 00:33:04;;;;;;;3.03;2.00;;;18.40;69.50;;;;;;5051421;28;20495;-85
2021/08/09 00:35:30;;;;;;;4.32;2.33;;;18.40;69.60;;;;;;5051359;28;20082;-84
2021/08/09 00:37:56;;;;;;;5.97;2.28;;;18.40;69.60;;;;;;5036083;28;20483;-87
2021/08/09 00:40:23;;;;;;;2.22;2.03;;;18.40;69.70;;;;;;5035652;28;20032;-84
2021/08/09 00:42:49;;;;;;;2.58;1.98;;;18.40;69.80;;;;;;5052274;28;20063;-85
2021/08/09 00:45:16;;;;;;;5.40;2.72;;;18.30;69.60;;;;;;5051386;28;20021;-84
2021/08/09 00:47:42;;;;;;;4.82;2.35;;;18.30;69.70;;;;;;5069311;28;20396;-85
2021/08/09 00:50:11;;;;;;;8.77;2.60;;;18.30;69.80;;;;;;5068608;28;20037;-83
2021/08/09 00:52:38;;;;;;;4.70;2.72;;;18.30;69.80;;;;;;5068547;28;20024;-84
2021/08/09 00:55:05;;;;;;;7.35;2.47;;;18.20;69.70;;;;;;5034705;28;20115;-86
2021/08/09 00:57:33;;;;;;;4.13;2.30;;;18.20;69.80;;;;;;5068202;28;20393;-85
2021/08/09 01:00:01;;;;;;;3.22;1.98;;;18.10;69.70;;;;;;5051598;28;20430;-86
2021/08/09 01:02:30;;;;;;;5.18;2.50;;;18.20;70.00;;;;;;5051614;28;20115;-87
2021/08/09 01:05:05;;;;;;;4.03;2.33;;;18.20;70.00;;;;;;5051878;28;20028;-87
2021/08/09 01:07:36;;;;;;;5.55;2.58;;;18.10;69.90;;;;;;5051824;28;20063;-85
2021/08/09 01:10:17;;;;;;;5.13;2.60;;;18.10;70.00;;;;;;5051780;28;20598;-85
2021/08/09 01:13:14;;;;;;;4.00;2.15;;;18.10;70.00;;;;;;5051058;28;20119;-84
2021/08/09 01:15:43;;;;;;;5.25;2.90;;;18.10;70.10;;;;;;5067511;28;20032;-82
2021/08/09 01:18:12;;;;;;;4.07;2.42;;;18.00;69.90;;;;;;5033938;28;20119;-83
2021/08/09 01:20:46;;;;;;;5.78;2.08;;;18.00;70.00;;;;;;5068071;28;20044;-84
2021/08/09 01:23:25;;;;;;;4.90;2.30;;;18.00;70.00;;;;;;5051056;28;20032;-83
2021/08/09 01:26:22;;;;;;;5.00;2.67;;;18.00;70.00;;;;;;5066762;28;20285;-82
2021/08/09 01:28:48;;;;;;;3.22;2.25;;;18.00;70.10;;;;;;5066852;28;20246;-82
2021/08/09 01:31:17;;;;;;;3.90;2.47;;;17.90;69.90;;;;;;5053327;28;20028;-82
2021/08/09 01:33:44;;;;;;;4.88;2.38;;;17.90;70.00;;;;;;5083085;28;20036;-83
2021/08/09 01:36:12;;;;;;;3.65;2.15;;;17.90;70.00;;;;;;5083171;28;20275;-83
2021/08/09 01:38:46;;;;;;;4.75;2.40;;;17.90;70.10;;;;;;5051322;28;20480;-84
2021/08/09 01:41:13;;;;;;;4.40;1.98;;;17.90;70.10;;;;;;5069261;28;20036;-83
2021/08/09 01:43:40;;;;;;;6.88;2.50;;;17.90;70.20;;;;;;5068401;28;20032;-83
2021/08/09 01:46:07;;;;;;;4.60;2.30;;;17.80;70.00;;;;;;5070709;28;20031;-85
2021/08/09 01:48:34;;;;;;;5.90;2.60;;;17.80;70.60;;;;;;5084430;28;20039;-84
2021/08/09 01:51:01;;;;;;;7.00;2.92;;;17.80;70.10;;;;;;5050996;28;20399;-83
2021/08/09 01:53:30;;;;;;;3.97;2.28;;;17.80;70.20;;;;;;5091712;28;20162;-83
2021/08/09 01:55:57;;;;;;;5.93;3.33;;;17.70;70.00;;;;;;5060596;28;20036;-83
2021/08/09 01:58:25;;;;;;;4.28;2.35;;;17.70;70.10;;;;;;5053954;28;20025;-85
2021/08/09 02:00:52;;;;;;;5.63;2.47;;;17.70;70.40;;;;;;5054865;28;20433;-85
2021/08/09 02:03:18;;;;;;;7.30;2.50;;;17.70;70.20;;;;;;5071386;28;20032;-84
2021/08/09 02:05:44;;;;;;;3.97;2.33;;;17.60;70.10;;;;;;5072021;28;20035;-84
2021/08/09 02:08:12;;;;;;;2.80;2.03;;;17.60;70.10;;;;;;5054369;28;20457;-83
2021/08/09 02:10:39;;;;;;;3.47;2.17;;;17.60;70.20;;;;;;5071014;28;20090;-84
2021/08/09 02:13:32;;;;;;;4.43;2.25;;;17.60;70.30;;;;;;5070417;28;20128;-83
2021/08/09 02:16:10;;;;;;;4.03;2.30;;;17.50;70.20;;;;;;5070757;28;20033;-81
2021/08/09 02:18:47;;;;;;;3.08;2.72;;;17.50;70.20;;;;;;5070726;28;20119;-82
2021/08/09 02:21:18;;;;;;;4.05;2.03;;;17.50;70.20;;;;;;5072848;28;20511;-82
2021/08/09 02:23:59;;;;;;;5.60;2.33;;;17.50;70.20;;;;;;5071827;28;20479;-83
2021/08/09 02:26:33;;;;;;;4.03;1.95;;;17.50;70.30;;;;;;5071739;28;20134;-83
2021/08/09 02:29:12;;;;;;;4.43;2.03;;;17.50;70.30;;;;;;5054962;28;20583;-83
2021/08/09 02:31:42;;;;;;;7.65;2.33;;;17.50;70.30;;;;;;5054890;28;20549;-82
2021/08/09 02:34:14;;;;;;;4.45;2.22;;;17.50;70.30;;;;;;5054637;28;20035;-83
2021/08/09 02:36:42;;;;;;;2.65;2.05;;;17.50;70.60;;;;;;5072404;28;20040;-84
2021/08/09 02:39:10;;;;;;;3.95;1.75;;;17.40;70.30;;;;;;5071057;28;20067;-82
2021/08/09 02:41:39;;;;;;;4.53;2.20;;;17.40;70.40;;;;;;5053754;28;20028;-82
2021/08/09 02:44:08;;;;;;;5.32;2.40;;;17.40;70.40;;;;;;5054324;28;20028;-83
2021/08/09 02:46:35;;;;;;;6.10;1.88;;;17.40;70.50;;;;;;5071868;28;20020;-85
2021/08/09 02:49:02;;;;;;;3.85;2.28;;;17.40;70.50;;;;;;5070974;28;20044;-83
2021/08/09 02:51:30;;;;;;;5.68;2.30;;;17.40;70.50;;;;;;5053542;28;20147;-85
2021/08/09 02:53:56;;;;;;;4.53;2.05;;;17.30;70.30;;;;;;5054540;28;20040;-85
2021/08/09 02:56:24;;;;;;;4.70;1.90;;;17.30;70.40;;;;;;5071657;28;20040;-84
2021/08/09 02:58:51;;;;;;;4.55;1.88;;;17.30;70.50;;;;;;5054834;28;20369;-85
2021/08/09 03:01:18;;;;;;;3.15;1.90;;;17.30;70.60;;;;;;5045609;28;20036;-87
2021/08/09 03:03:48;;;;;;;3.20;1.80;;;17.30;71.20;;;;;;5057529;28;20099;-85
2021/08/09 03:06:14;;;;;;;2.78;1.90;;;17.30;70.80;;;;;;5055777;28;20067;-83
2021/08/09 03:08:41;;;;;;;6.47;2.28;;;17.20;70.60;;;;;;5054692;28;20040;-82
2021/08/09 03:11:08;;;;;;;3.28;2.03;;;17.20;70.60;;;;;;5071978;28;20522;-86
2021/08/09 03:13:37;;;;;;;3.45;2.00;;;17.20;70.70;;;;;;5054435;28;20025;-82
2021/08/09 03:16:06;;;;;;;2.55;1.88;;;17.20;70.80;;;;;;5070311;28;20078;-82
2021/08/09 03:18:35;;;;;;;3.22;2.00;;;17.20;70.90;;;;;;5072021;28;20028;-81
2021/08/09 03:21:01;;;;;;;2.33;1.83;;;17.20;70.90;;;;;;5057555;28;20033;-81
2021/08/09 03:23:27;;;;;;;5.63;2.53;;;17.20;70.90;;;;;;5074222;28;20701;-83
2021/08/09 03:25:53;;;;;;;2.95;2.17;;;17.20;70.90;;;;;;5074198;28;20063;-83
2021/08/09 03:28:19;;;;;;;2.45;1.75;;;17.20;70.90;;;;;;5074648;28;20072;-83
2021/08/09 03:30:45;;;;;;;3.80;1.73;;;17.20;71.00;;;;;;5057436;28;20142;-84
2021/08/09 03:33:11;;;;;;;3.17;1.80;;;17.20;71.00;;;;;;5075469;28;20044;-81
2021/08/09 03:35:37;;;;;;;2.50;1.60;;;17.10;70.80;;;;;;5074174;28;20071;-82
2021/08/09 03:38:04;;;;;;;3.50;2.13;;;17.10;70.90;;;;;;5073241;28;20056;-80
2021/08/09 03:40:30;;;;;;;2.25;1.80;;;17.10;70.90;;;;;;5074059;28;20036;-80
2021/08/09 03:42:57;;;;;;;3.67;1.65;;;17.10;71.00;;;;;;5057648;28;20336;-81
2021/08/09 03:45:23;;;;;;;2.08;1.27;;;17.10;71.00;;;;;;5073966;28;20063;-81
2021/08/09 03:47:49;;;;;;;1.95;1.60;;;17.10;71.10;;;;;;5056776;28;20449;-81
2021/08/09 03:50:15;;;;;;;3.25;1.90;;;17.10;71.20;;;;;;5064402;28;20025;-83
2021/08/09 03:52:49;;;;;;;2.67;1.60;;;17.00;71.00;;;;;;5074671;28;20472;-82
2021/08/09 03:55:15;;;;;;;3.28;1.80;;;17.10;71.30;;;;;;5074740;28;20047;-82
2021/08/09 03:57:41;;;;;;;2.45;1.70;;;17.10;71.20;;;;;;5073568;28;20521;-81
2021/08/09 04:00:08;;;;;;;1.52;1.40;;;17.00;71.00;;;;;;5074854;28;20526;-84
2021/08/09 04:02:40;;;;;;;2.58;1.77;;;17.00;71.00;;;;;;5073451;28;20025;-83
2021/08/09 04:05:09;;;;;;;2.95;1.55;;;17.00;71.00;;;;;;5073625;28;20099;-85
2021/08/09 04:07:37;;;;;;;3.33;1.60;;;17.00;71.10;;;;;;5057222;28;20040;-86
2021/08/09 04:10:05;;;;;;;2.08;1.63;;;17.00;71.10;;;;;;5056358;28;20033;-85
2021/08/09 04:12:31;;;;;;;2.20;1.50;;;17.00;71.20;;;;;;5056945;28;20092;-83
2021/08/09 04:14:57;;;;;;;1.98;1.55;;;17.00;71.40;;;;;;5056459;28;20527;-81
2021/08/09 04:17:23;;;;;;;2.47;1.50;;;17.00;71.40;;;;;;5073590;28;20028;-82
2021/08/09 04:19:49;;;;;;;3.88;1.98;;;16.90;71.20;;;;;;5056573;28;20054;-82
2021/08/09 04:22:15;;;;;;;1.92;1.45;;;16.90;71.30;;;;;;5063905;28;20032;-82
2021/08/09 04:24:42;;;;;;;4.68;1.90;;;16.90;71.40;;;;;;5073515;28;20029;-82
2021/08/09 04:27:08;;;;;;;1.58;1.48;;;16.90;71.40;;;;;;5072955;28;20044;-82
2021/08/09 04:29:34;;;;;;;1.45;1.25;;;16.90;71.40;;;;;;5056240;28;20032;-84
2021/08/09 04:32:00;;;;;;;2.97;1.75;;;16.90;71.40;;;;;;5072885;28;20495;-80
2021/08/09 04:34:27;;;;;;;2.47;1.52;;;16.90;71.40;;;;;;5073401;28;20033;-83
2021/08/09 04:36:54;;;;;;;1.70;1.42;;;16.80;71.70;;;;;;5072976;28;20111;-81
2021/08/09 04:39:20;;;;;;;1.17;1.08;;;16.80;71.20;;;;;;5073498;28;20171;-86
2021/08/09 04:41:46;;;;;;;2.13;1.52;;;16.90;71.50;;;;;;5056658;28;20365;-81
2021/08/09 04:44:15;;;;;;;1.83;1.73;;;16.80;71.30;;;;;;5072928;28;20089;-82
2021/08/09 04:46:42;;;;;;;2.08;1.50;;;16.90;71.50;;;;;;5060123;28;20471;-82
2021/08/09 04:49:08;;;;;;;2.35;1.70;;;16.80;71.40;;;;;;5064154;28;20067;-84
2021/08/09 04:51:35;;;;;;;2.53;1.60;;;16.80;71.40;;;;;;5071289;28;20035;-84
2021/08/09 04:54:01;;;;;;;2.33;1.77;;;16.80;71.40;;;;;;5077333;28;20032;-83
2021/08/09 04:56:27;;;;;;;3.05;1.75;;;16.80;71.50;;;;;;5067908;28;20023;-81
2021/08/09 04:58:54;;;;;;;2.17;1.65;;;16.80;71.50;;;;;;5075201;28;20036;-81
2021/08/09 05:01:20;;;;;;;4.00;1.70;;;16.80;71.50;;;;;;5052756;28;20073;-81
2021/08/09 05:03:46;;;;;;;1.77;1.55;;;16.70;71.40;;;;;;5046743;28;20044;-83
2021/08/09 05:06:19;;;;;;;3.28;1.50;;;16.70;71.40;;;;;;5047602;28;20033;-83
2021/08/09 05:08:47;;;;;;;1.88;1.60;;;16.80;71.60;;;;;;5051535;28;20045;-86
2021/08/09 05:11:12;;;;;;;2.65;1.70;;;16.70;71.50;;;;;;5042067;28;20379;-87
2021/08/09 05:13:40;;;;;;;1.63;1.40;;;16.80;71.70;;;;;;5039303;28;20040;-86
2021/08/09 05:16:06;;;;;;;2.13;1.65;;;16.70;71.60;;;;;;5060734;28;20290;-85
2021/08/09 05:18:32;;;;;;;3.15;1.30;;;16.80;71.80;;;;;;5034810;28;20032;-84
2021/08/09 05:20:59;;;;;;;2.15;1.67;;;16.70;71.60;;;;;;5052341;28;20107;-86
2021/08/09 05:23:25;;;;;;;3.05;1.70;;;16.80;71.90;;;;;;5040223;28;20029;-87
2021/08/09 05:25:51;;;;;;;2.30;1.58;;;16.80;71.90;;;;;;5070071;28;20460;-87
2021/08/09 05:28:17;;;;;;;2.33;1.73;;;16.80;71.90;;;;;;5055580;28;20411;-80
2021/08/09 05:30:43;;;;;;;2.47;1.80;;;16.80;71.90;;;;;;5078428;28;20038;-83
2021/08/09 05:33:09;;;;;;;2.35;1.60;;;16.80;71.90;;;;;;5072265;28;20408;-83
2021/08/09 05:35:37;;;;;;;2.13;1.80;;;16.80;71.90;;;;;;5059535;28;20030;-87
2021/08/09 05:38:03;;;;;;;2.63;1.80;;;16.80;71.90;;;;;;5067648;28;20024;-84
2021/08/09 05:40:30;;;;;;;2.97;1.75;;;16.80;71.90;;;;;;5060534;28;20077;-86
2021/08/09 05:42:58;;;;;;;2.25;1.88;;;16.80;72.00;;;;;;5054683;28;20062;-87
2021/08/09 05:45:25;;;;;;;2.15;1.50;;;16.80;72.00;;;;;;5051981;28;20102;-86
2021/08/09 05:47:52;;;;;;;2.47;1.50;;;16.80;72.00;;;;;;5035333;28;20031;-87
2021/08/09 05:50:18;;;;;;;1.70;1.60;;;16.70;71.90;;;;;;5035142;28;20036;-82
2021/08/09 05:52:57;;;;;;;2.00;1.70;;;16.70;71.90;;;;;;5067418;28;20037;-85
2021/08/09 05:55:23;;;;;;;2.50;2.05;;;16.70;71.90;;;;;;5051732;28;20036;-88
2021/08/09 05:57:51;;;;;;;2.67;1.95;;;16.70;72.00;;;;;;5052625;28;20024;-82
2021/08/09 06:00:19;;;;;;;2.55;1.90;;;16.70;71.90;;;;;;5034886;28;20045;-86
2021/08/09 06:02:52;;;;;;;4.30;2.05;;;16.70;72.00;;;;;;5051981;28;20063;-86
2021/08/09 06:05:41;;;;;;;3.33;1.85;;;16.70;72.00;;;;;;5054005;28;20031;-84
2021/08/09 06:08:10;;;;;;;3.40;1.98;;;16.70;72.00;;;;;;5050485;28;20057;-86
2021/08/09 06:10:36;;;;;;;3.08;1.80;;;16.70;72.00;;;;;;5051219;28;20042;-86
2021/08/09 06:13:06;;;;;;;4.57;2.08;;;16.70;72.00;;;;;;5049917;28;20025;-83
2021/08/09 06:15:32;;;;;;;2.58;2.30;;;16.70;72.00;;;;;;5050759;28;20040;-81
2021/08/09 06:17:58;;;;;;;2.50;2.00;;;16.70;72.10;;;;;;5049451;28;20111;-81
2021/08/09 06:20:27;;;;;;;2.97;1.80;;;16.70;72.00;;;;;;5065959;28;20067;-80
2021/08/09 06:22:55;;;;;;;4.28;2.40;;;16.80;72.30;;;;;;5054927;28;20025;-88
2021/08/09 06:25:23;;;;;;;3.15;2.00;;;16.80;72.40;;;;;;5029856;28;20028;-87
2021/08/09 06:27:50;;;;;;;3.35;2.33;;;16.80;72.40;;;;;;5065863;28;20021;-89
2021/08/09 06:30:17;;;;;;;3.10;2.35;;;16.80;72.40;;;;;;5029451;28;20037;-86
2021/08/09 06:32:44;;;;;;;3.13;2.00;;;16.80;72.40;;;;;;5023625;28;20045;-85
2021/08/09 06:35:11;;;;;;;3.78;2.05;;;16.80;72.40;;;;;;5028509;28;20032;-86
2021/08/09 06:37:39;;;;;;;6.53;2.47;;;16.80;72.50;;;;;;5029146;28;20071;-86
2021/08/09 06:40:06;;;;;;;3.55;2.13;;;16.80;72.50;;;;;;5030310;28;20029;-88
2021/08/09 06:42:33;;;;;;;3.17;2.22;;;16.80;72.50;;;;;;5029825;28;20040;-86
2021/08/09 06:45:25;;;;;;;5.47;2.17;;;16.80;72.40;;;;;;5031262;28;20035;-85
2021/08/09 06:47:51;;;;;;;3.20;2.60;;;16.80;72.40;;;;;;5013977;28;20053;-86
2021/08/09 06:50:18;;;;;;;3.22;2.67;;;16.80;72.40;;;;;;5030257;28;20479;-85
2021/08/09 06:52:45;;;;;;;3.63;2.03;;;16.80;72.50;;;;;;5030313;28;20063;-85
2021/08/09 06:55:11;;;;;;;3.00;2.50;;;16.90;72.70;;;;;;5016971;28;20038;-86
2021/08/09 06:57:39;;;;;;;3.13;1.85;;;17.00;73.10;;;;;;5029810;28;20084;-88
2021/08/09 07:00:06;;;;;;;3.92;2.13;;;17.10;73.20;;;;;;5030180;28;20029;-89
2021/08/09 07:02:34;;;;;;;2.72;2.13;;;17.30;73.50;;;;;;5013974;28;20419;-87
2021/08/09 07:05:00;;;;;;;4.70;2.17;;;17.40;73.40;;;;;;5029315;28;20032;-87
2021/08/09 07:07:27;;;;;;;3.85;2.40;;;17.60;73.60;;;;;;5029698;28;20120;-88
2021/08/09 07:09:53;;;;;;;3.22;2.30;;;17.70;73.70;;;;;;5031070;28;20497;-88
2021/08/09 07:12:20;;;;;;;3.20;2.00;;;18.00;74.20;;;;;;4998403;28;20067;-89
2021/08/09 07:14:46;;;;;;;3.22;1.88;;;18.20;74.50;;;;;;5014248;28;20127;-90
2021/08/09 07:17:13;;;;;;;2.42;1.92;;;18.50;74.70;;;;;;5030839;28;20036;-86
2021/08/09 07:19:40;;;;;;;3.58;2.05;;;18.80;75.00;;;;;;5030602;28;20029;-87
2021/08/09 07:22:06;;;;;;;3.58;2.00;;;19.20;75.30;;;;;;5028820;28;20112;-89
2021/08/09 07:24:36;;;;;;;3.25;2.13;;;19.50;75.20;;;;;;5029144;28;20112;-83
2021/08/09 07:27:03;;;;;;;4.15;2.10;;;19.80;75.10;;;;;;5014051;28;20060;-89
2021/08/09 07:29:31;;;;;;;2.22;1.85;;;20.10;75.10;;;;;;5063141;28;20045;-89
2021/08/09 07:31:58;;;;;;;2.65;2.05;;;20.20;74.60;;;;;;5037444;28;20068;-86
2021/08/09 07:34:27;;;;;;;3.40;1.92;;;20.50;74.90;;;;;;5031107;28;20191;-89
2021/08/09 07:36:53;;;;;;;1.92;1.75;;;20.70;74.90;;;;;;5034325;28;20465;-93
2021/08/09 07:39:22;;;;;;;4.97;2.28;;;21.00;74.90;;;;;;5051345;28;20032;-90
2021/08/09 07:41:48;;;;;;;2.67;1.85;;;21.30;74.90;;;;;;5052278;28;20043;-91
2021/08/09 07:44:14;;;;;;;2.95;2.20;;;21.50;74.60;;;;;;5036379;28;20036;-89
2021/08/09 07:46:40;;;;;;;2.72;2.40;;;21.80;74.50;;;;;;5037370;28;20028;-92
2021/08/09 07:49:07;;;;;;;2.35;1.70;;;22.00;74.40;;;;;;5037394;28;20032;-93
2021/08/09 07:51:34;;;;;;;3.38;2.17;;;22.20;74.30;;;;;;5037645;28;20038;-91
2021/08/09 07:54:01;;;;;;;3.90;2.22;;;22.40;74.10;;;;;;5052508;28;20029;-92
2021/08/09 07:56:30;;;;;;;8.15;2.45;;;22.60;74.00;;;;;;5054060;28;20036;-90
2021/08/09 07:58:58;;;;;;;3.28;2.20;;;22.80;73.80;;;;;;5020407;28;20029;-86
2021/08/09 08:01:24;;;;;;;3.13;2.28;;;23.10;73.90;;;;;;5052228;28;20032;-90
2021/08/09 08:03:54;;;;;;;3.38;2.00;;;23.30;73.70;;;;;;5054138;28;20483;-91
2021/08/09 08:06:20;;;;;;;3.47;2.20;;;23.50;73.30;;;;;;5069293;28;20115;-86
2021/08/09 08:08:48;;;;;;;4.90;2.28;;;23.70;73.10;;;;;;5067882;28;20048;-86
2021/08/09 08:11:14;;;;;;;3.40;2.22;;;23.90;73.00;;;;;;5052316;28;20434;-83
2021/08/09 08:13:40;;;;;;;3.50;2.67;;;24.10;72.90;;;;;;5052716;28;20028;-93
2021/08/09 08:16:07;;;;;;;2.45;2.05;;;24.30;72.60;;;;;;5053360;28;20507;-83
2021/08/09 08:18:34;;;;;;;2.97;2.38;;;24.50;72.50;;;;;;5069114;28;20475;-82
2021/08/09 08:21:02;;;;;;;3.33;2.20;;;24.70;72.10;;;;;;5069073;28;20025;-85
2021/08/09 08:23:29;;;;;;;2.53;2.20;;;24.90;71.90;;;;;;5060178;28;20373;-84
2021/08/09 08:25:55;;;;;;;2.90;2.30;;;25.10;71.60;;;;;;5053500;28;20554;-89
2021/08/09 08:28:21;;;;;;;3.40;2.42;;;25.20;71.00;;;;;;5047875;28;20037;-87
2021/08/09 08:30:49;;;;;;;3.53;2.00;;;25.30;70.60;;;;;;5053751;28;20024;-85
2021/08/09 08:33:17;;;;;;;5.50;2.53;;;25.30;70.20;;;;;;5052857;28;20049;-86
2021/08/09 08:35:43;;;;;;;3.30;2.40;;;25.30;70.00;;;;;;5071931;28;20064;-86
2021/08/09 08:38:09;;;;;;;3.15;1.98;;;25.20;69.80;;;;;;5049392;28;20677;-88
2021/08/09 08:40:49;;;;;;;3.72;2.10;;;25.10;69.80;;;;;;5053502;28;20609;-93
2021/08/09 08:43:26;;;;;;;3.50;2.13;;;25.00;69.70;;;;;;5052185;28;20037;-88
2021/08/09 08:46:01;;;;;;;4.28;2.28;;;24.80;69.70;;;;;;5051406;28;20097;-85
2021/08/09 08:48:31;;;;;;;2.50;1.85;;;24.70;69.60;;;;;;5036270;28;20049;-87
2021/08/09 08:51:00;;;;;;;3.15;2.13;;;24.70;69.80;;;;;;5037257;28;20047;-88
2021/08/09 08:53:28;;;;;;;2.83;2.05;;;24.60;69.70;;;;;;5035665;28;20024;-86
2021/08/09 08:55:55;;;;;;;3.83;2.40;;;24.60;69.80;;;;;;5052807;28;20040;-88
2021/08/09 08:58:21;;;;;;;2.50;1.60;;;24.50;69.70;;;;;;5037963;28;20469;-87
2021/08/09 09:00:49;;;;;;;3.50;2.15;;;24.50;69.70;;;;;;5048432;28;20032;-86
2021/08/09 09:03:23;;;;;;;2.55;1.98;;;24.50;69.70;;;;;;5052634;28;20032;-87
2021/08/09 09:06:03;;;;;;;3.63;2.10;;;24.40;69.50;;;;;;5035987;28;20060;-86
2021/08/09 09:08:48;;;;;;;4.45;2.20;;;24.40;69.70;;;;;;5069084;28;20734;-86
2021/08/09 09:11:24;;;;;;;3.38;2.20;;;24.50;69.90;;;;;;5052554;28;20055;-88
2021/08/09 09:13:54;;;;;;;4.95;2.00;;;24.50;69.80;;;;;;5053763;28;20033;-89
2021/08/09 09:16:20;;;;;;;4.32;1.83;;;24.50;69.70;;;;;;5051245;28;20036;-87
2021/08/09 09:18:48;;;;;;;2.78;2.30;;;24.50;69.70;;;;;;5070133;28;20020;-91
2021/08/09 09:21:36;;;;;;;3.35;2.08;;;24.60;69.80;;;;;;5037474;28;20131;-92
2021/08/09 09:24:09;;;;;;;2.83;2.00;;;24.70;69.90;;;;;;5039156;28;20028;-91
2021/08/09 09:26:36;;;;;;;3.83;2.33;;;24.90;70.00;;;;;;5037007;28;20032;-92
2021/08/09 09:29:15;;;;;;;3.13;1.90;;;25.00;69.80;;;;;;5051206;28;20155;-91
2021/08/09 09:31:44;;;;;;;4.50;2.00;;;25.10;69.60;;;;;;5016398;28;20052;-88
2021/08/09 09:34:13;;;;;;;2.35;1.75;;;25.20;69.50;;;;;;5049017;28;20039;-91
2021/08/09 09:36:51;;;;;;;2.20;1.88;;;25.20;69.90;;;;;;5052802;28;20186;-88
2021/08/09 09:39:39;;;;;;;2.42;1.75;;;25.10;69.20;;;;;;5045434;28;20044;-90
2021/08/09 09:42:10;;;;;;;2.20;1.60;;;25.10;69.10;;;;;;5035812;28;20751;-90
2021/08/09 09:44:39;;;;;;;2.83;2.05;;;25.00;69.00;;;;;;5037072;28;20024;-90
2021/08/09 09:47:27;;;;;;;2.95;1.67;;;24.90;68.90;;;;;;5050408;28;20047;-90
2021/08/09 09:50:00;;;;;;;2.08;1.58;;;24.80;68.70;;;;;;5052105;28;20072;-90
2021/08/09 09:52:39;;;;;;;2.13;1.90;;;24.70;69.20;;;;;;5051013;28;20051;-88
2021/08/09 09:55:08;;;;;;;3.85;1.98;;;24.50;68.50;;;;;;5053585;28;20131;-88
2021/08/09 09:57:35;;;;;;;2.92;2.10;;;24.50;68.70;;;;;;5053450;28;20028;-92
2021/08/09 10:00:03;;;;;;;3.10;1.83;;;24.40;68.60;;;;;;5052855;28;20577;-93
2021/08/09 10:02:43;;;;;;;2.55;1.63;;;24.30;68.50;;;;;;5063557;28;20410;-88
2021/08/09 10:05:10;;;;;;;2.80;1.80;;;24.20;68.50;;;;;;5053187;28;20129;-89
2021/08/09 10:07:37;;;;;;;2.42;1.30;;;24.20;68.80;;;;;;5035537;28;20495;-90
2021/08/09 10:10:07;;;;;;;2.17;1.70;;;24.30;68.90;;;;;;5035458;28;20048;-88
2021/08/09 10:12:35;;;;;;;2.22;1.80;;;24.30;68.80;;;;;;5055995;28;20032;-93
2021/08/09 10:15:01;;;;;;;2.95;1.80;;;24.40;69.00;;;;;;5056041;28;20028;-91
2021/08/09 10:17:30;;;;;;;2.00;1.73;;;24.30;68.80;;;;;;5054760;28;20040;-87
2021/08/09 10:20:03;;;;;;;4.47;1.77;;;24.30;68.90;;;;;;5050043;28;20380;-87
2021/08/09 10:22:29;;;;;;;4.18;2.03;;;24.40;69.20;;;;;;5054152;28;20105;-90
2021/08/09 10:24:57;;;;;;;2.13;1.92;;;24.40;69.30;;;;;;5058984;28;20060;-86
2021/08/09 10:27:48;;;;;;;3.60;2.22;;;24.50;69.50;;;;;;5053773;28;20055;-88
2021/08/09 10:30:24;;;;;;;2.78;1.70;;;24.60;69.60;;;;;;5030339;28;20045;-86
2021/08/09 10:32:53;;;;;;;2.33;1.73;;;24.80;69.60;;;;;;5058953;28;20349;-88
2021/08/09 10:35:38;;;;;;;2.47;1.80;;;24.90;69.60;;;;;;5056533;28;20483;-88
2021/08/09 10:38:21;;;;;;;4.13;1.95;;;25.10;69.60;;;;;;5065997;28;20569;-87
2021/08/09 10:41:06;;;;;;;3.78;1.65;;;25.10;69.30;;;;;;5051184;28;20029;-86
2021/08/09 10:43:32;;;;;;;1.98;1.58;;;25.20;69.10;;;;;;5038881;28;20039;-87
2021/08/09 10:45:58;;;;;;;1.85;1.65;;;25.30;69.00;;;;;;5049341;28;20036;-88
2021/08/09 10:48:45;;;;;;;3.55;1.58;;;25.40;68.90;;;;;;5050418;28;20036;-86
2021/08/09 10:51:12;;;;;;;2.03;1.60;;;25.50;68.70;;;;;;5050085;28;20033;-88
2021/08/09 10:53:44;;;;;;;3.33;1.60;;;25.50;68.60;;;;;;5051039;28;20028;-89
2021/08/09 10:56:44;;;;;;;3.88;1.80;;;25.50;68.40;;;;;;5035340;28;20107;-94
2021/08/09 10:59:40;;;;;;;2.92;1.48;;;25.60;68.50;;;;;;5053450;28;20029;-94
2021/08/09 11:02:28;;;;;;;2.47;1.77;;;25.60;68.40;;;;;;5034049;28;20119;-82
2021/08/09 11:05:15;;;;;;;4.15;2.15;;;25.70;67.80;;;;;;5049533;28;20043;-88
2021/08/09 11:07:42;;;;;;;2.40;1.70;;;25.70;67.30;;;;;;5037037;28;20464;-87
2021/08/09 11:10:12;;;;;;;2.60;1.60;;;25.70;67.20;;;;;;5030662;28;20041;-87
2021/08/09 11:12:58;;;;;;;2.28;1.65;;;25.70;67.00;;;;;;5068692;28;20039;-87
2021/08/09 11:15:24;;;;;;;2.70;1.58;;;25.70;66.70;;;;;;5034511;28;20075;-92
2021/08/09 11:17:52;;;;;;;2.90;1.83;;;25.80;66.70;;;;;;5049636;28;20024;-85
2021/08/09 11:20:30;;;;;;;2.95;1.50;;;25.80;66.60;;;;;;5034219;28;20028;-88
2021/08/09 11:23:11;;;;;;;2.33;1.73;;;25.90;66.40;;;;;;5067427;28;20035;-88
2021/08/09 11:25:48;;;;;;;4.75;1.80;;;26.10;66.40;;;;;;5050786;28;20025;-88
2021/08/09 11:28:24;;;;;;;2.28;1.60;;;26.20;66.30;;;;;;5051232;28;20086;-88
2021/08/09 11:30:55;;;;;;;3.00;2.00;;;26.20;66.00;;;;;;5051327;28;20060;-88
2021/08/09 11:33:29;;;;;;;1.98;1.73;;;26.30;66.00;;;;;;5050540;28;20126;-91
2021/08/09 11:36:00;;;;;;;2.90;1.90;;;26.30;66.10;;;;;;5034938;28;20025;-90
2021/08/09 11:38:29;;;;;;;2.85;1.88;;;26.40;66.10;;;;;;5034631;28;20040;-89
2021/08/09 11:41:05;;;;;;;4.15;1.85;;;26.40;66.00;;;;;;5037807;28;20487;-80
2021/08/09 11:43:32;;;;;;;8.77;3.28;;;26.50;65.70;;;;;;5037144;28;20060;-91
2021/08/09 11:46:10;;;;;;;7.13;2.85;;;26.60;65.70;;;;;;5056168;28;20033;-90
2021/08/09 11:48:39;;;;;;;5.60;3.22;;;26.70;65.60;;;;;;5038820;28;20119;-89
2021/08/09 11:51:12;;;;;;;7.15;2.75;;;26.80;65.40;;;;;;5038812;28;20091;-89
2021/08/09 11:53:39;;;;;;;5.07;2.30;;;26.90;65.30;;;;;;5038225;28;20522;-91
2021/08/09 11:56:11;;;;;;;5.20;2.65;;;26.90;65.30;;;;;;5023144;28;20115;-87
2021/08/09 11:58:38;;;;;;;5.97;2.50;;;26.90;65.20;;;;;;5055281;28;20028;-90
2021/08/09 12:01:04;;;;;;;7.20;2.20;;;27.00;65.10;;;;;;5055519;28;20115;-92
2021/08/09 12:03:31;;;;;;;2.80;1.77;;;27.10;65.10;;;;;;5056359;28;20527;-90
2021/08/09 12:06:26;;;;;;;3.10;1.92;;;27.20;65.10;;;;;;5036932;28;20028;-88
2021/08/09 12:08:57;;;;;;;2.55;2.10;;;27.30;64.90;;;;;;5045577;28;20041;-88
2021/08/09 12:11:31;;;;;;;3.20;2.03;;;27.50;64.90;;;;;;5053735;28;20123;-86
2021/08/09 12:14:21;;;;;;;3.50;2.10;;;27.50;64.70;;;;;;5052814;28;20082;-86
2021/08/09 12:16:59;;;;;;;5.43;2.15;;;27.60;64.70;;;;;;5049484;28;20045;-87
2021/08/09 12:19:42;;;;;;;2.75;2.22;;;27.60;64.60;;;;;;5052737;28;20487;-88
2021/08/09 12:22:14;;;;;;;2.95;2.00;;;27.60;64.50;;;;;;5054304;28;20040;-93
2021/08/09 12:24:41;;;;;;;4.47;2.25;;;27.60;64.50;;;;;;5058738;28;20028;-91
2021/08/09 12:27:17;;;;;;;2.83;1.80;;;27.70;64.50;;;;;;5035060;28;20036;-91
2021/08/09 12:30:21;;;;;;;5.25;2.45;;;27.70;64.30;;;;;;5051748;28;20458;-88
2021/08/09 12:33:02;;;;;;;3.03;2.15;;;27.60;64.40;;;;;;4990593;28;20064;-86
2021/08/09 12:35:38;;;;;;;3.42;2.00;;;27.60;63.90;;;;;;5008268;28;20029;-87
2021/08/09 12:38:06;;;;;;;5.78;2.03;;;27.50;64.20;;;;;;5049225;28;20033;-90
2021/08/09 12:40:51;;;;;;;3.95;2.15;;;27.40;63.90;;;;;;5033281;28;20025;-87
2021/08/09 12:43:19;;;;;;;5.53;2.30;;;27.40;64.10;;;;;;5027410;28;20399;-86
2021/08/09 12:45:47;;;;;;;2.90;2.10;;;27.40;64.30;;;;;;5048185;28;20028;-83
2021/08/09 12:48:14;;;;;;;2.03;1.60;;;27.40;64.20;;;;;;5061308;28;20434;-83
2021/08/09 12:50:42;;;;;;;3.08;2.25;;;27.50;64.20;;;;;;5067644;28;20040;-83
2021/08/09 12:53:11;;;;;;;3.35;1.80;;;27.40;64.00;;;;;;5051427;28;20143;-84
2021/08/09 12:55:37;;;;;;;2.42;1.80;;;27.40;64.10;;;;;;5034709;28;20032;-85
2021/08/09 12:58:06;;;;;;;4.50;1.90;;;27.30;63.90;;;;;;5069521;28;20404;-84
2021/08/09 13:00:32;;;;;;;4.68;1.75;;;27.30;63.90;;;;;;5066909;28;20029;-86
2021/08/09 13:02:59;;;;;;;2.90;1.67;;;27.30;64.00;;;;;;5064866;28;20041;-85